Time;durP1;ratioP1;P1;durP2;ratioP2;P2;SDS_P1;SDS_P2;PMS_P1;PMS_P2;Temp;Humidity;BMP_temperature;BMP_pressure;BME280_temperature;BME280_humidity;BME280_pressure;Samples;Min_cycle;Max_cycle;Signal;HPM_P1;HPM_P2
2022/12/30 00:00:55;;;;;;;2.92;1.40;;;;;;;21.28;36.73;100668.66;5067052;28;20060;-64
2022/12/30 00:03:21;;;;;;;4.03;1.70;;;;;;;21.27;36.68;100672.31;5069110;28;20035;-64
2022/12/30 00:05:46;;;;;;;4.05;1.63;;;;;;;21.28;36.67;100670.50;5066313;28;20044;-64
2022/12/30 00:10:56;;;;;;;3.33;1.70;;;;;;;21.24;36.87;100683.31;5070347;28;20151;-64
2022/12/30 00:35:31;;;;;;;4.32;2.15;;;;;;;21.23;36.81;100686.94;5076475;28;20051;-65
2022/12/30 00:37:56;;;;;;;3.35;1.65;;;;;;;21.17;36.86;100684.22;5069617;28;20032;-64
2022/12/30 00:40:22;;;;;;;2.28;1.23;;;;;;;21.18;36.81;100684.03;5073175;28;20064;-64
2022/12/30 00:45:32;;;;;;;3.55;1.70;;;;;;;21.20;37.09;100694.44;5072193;28;20129;-64
2022/12/30 00:47:57;;;;;;;3.20;1.73;;;;;;;21.26;36.74;100702.47;5070893;28;20028;-64
2022/12/30 00:58:35;;;;;;;3.80;1.58;;;;;;;21.42;36.72;100712.78;5075616;28;20043;-63
2022/12/30 01:01:00;;;;;;;2.88;1.67;;;;;;;21.36;36.70;100724.16;5075564;28;20032;-64
2022/12/30 01:03:26;;;;;;;2.63;1.67;;;;;;;21.35;36.70;100719.00;5074349;28;20828;-64
2022/12/30 01:05:51;;;;;;;4.38;2.33;;;;;;;21.26;36.80;100701.66;5068797;28;20044;-64
2022/12/30 01:08:17;;;;;;;3.13;1.83;;;;;;;21.29;36.64;100717.16;5070652;28;20149;-64
2022/12/30 01:10:42;;;;;;;4.07;1.85;;;;;;;21.35;37.05;100734.91;5070622;28;20056;-64
2022/12/30 01:13:08;;;;;;;3.65;2.17;;;;;;;21.34;36.88;100727.97;5072908;28;20032;-64
2022/12/30 01:15:34;;;;;;;2.65;1.75;;;;;;;21.36;36.76;100736.53;5072712;28;20040;-64
2022/12/30 01:17:59;;;;;;;4.20;1.73;;;;;;;21.35;36.57;100730.44;5073978;28;20984;-65
2022/12/30 01:20:25;;;;;;;2.20;1.70;;;;;;;21.33;36.91;100729.81;5072342;28;20052;-64
2022/12/30 01:22:51;;;;;;;3.10;1.70;;;;;;;21.34;36.95;100733.28;5070880;28;20090;-64
2022/12/30 01:25:16;;;;;;;4.03;1.40;;;;;;;21.33;36.73;100739.59;5071735;28;20036;-64
2022/12/30 01:27:42;;;;;;;3.13;1.77;;;;;;;21.30;37.05;100751.38;5070990;28;20032;-67
2022/12/30 01:30:08;;;;;;;3.28;1.67;;;;;;;21.33;36.84;100745.69;5070123;28;20043;-64
2022/12/30 01:32:36;;;;;;;2.17;1.58;;;;;;;21.29;36.73;100751.56;5070632;28;20036;-64
2022/12/30 01:35:02;;;;;;;3.60;1.67;;;;;;;21.28;36.73;100755.25;5066460;28;20167;-64
2022/12/30 01:37:28;;;;;;;4.63;1.92;;;;;;;21.29;36.95;100762.16;5069481;28;20048;-64
2022/12/30 01:39:53;;;;;;;2.90;1.80;;;;;;;21.26;36.98;100766.03;5070094;28;20098;-64
2022/12/30 01:42:20;;;;;;;3.42;1.70;;;;;;;21.26;37.09;100765.22;5073333;28;20779;-64
2022/12/30 01:44:49;;;;;;;3.53;1.75;;;;;;;21.26;36.83;100773.16;5069294;28;20036;-64
2022/12/30 01:47:47;;;;;;;3.22;1.95;;;;;;;21.26;36.77;100770.50;5074956;28;20482;-64
2022/12/30 01:50:19;;;;;;;1.80;1.48;;;;;;;21.25;36.85;100771.50;5067872;28;20540;-64
2022/12/30 01:52:54;;;;;;;3.30;1.83;;;;;;;21.26;36.94;100786.41;5073390;28;20032;-64
2022/12/30 01:55:54;;;;;;;3.83;1.70;;;;;;;21.25;36.66;100776.81;5068824;28;20858;-64
2022/12/30 01:58:27;;;;;;;3.17;1.80;;;;;;;21.23;36.82;100781.44;5050798;28;20071;-64
2022/12/30 02:00:53;;;;;;;3.13;1.83;;;;;;;21.21;36.74;100779.00;5071770;28;20047;-64
2022/12/30 02:03:19;;;;;;;4.55;1.60;;;;;;;21.22;36.96;100785.94;5072491;28;20489;-64
2022/12/30 02:05:46;;;;;;;3.10;1.77;;;;;;;21.21;36.94;100786.13;5070996;28;20048;-63
2022/12/30 02:08:14;;;;;;;3.55;1.80;;;;;;;21.20;36.84;100787.94;5073728;28;20044;-64
2022/12/30 02:10:47;;;;;;;2.78;1.48;;;;;;;21.21;36.95;100783.47;5066203;28;20042;-64
2022/12/30 02:13:17;;;;;;;2.03;1.40;;;;;;;21.20;36.78;100777.34;5072873;28;20492;-64
2022/12/30 02:16:18;;;;;;;3.22;1.67;;;;;;;21.18;37.01;100781.19;5070477;28;20593;-64
2022/12/30 02:19:08;;;;;;;3.05;1.67;;;;;;;21.18;36.79;100783.81;5069782;28;20409;-64
2022/12/30 02:21:52;;;;;;;4.78;2.00;;;;;;;21.17;36.97;100782.19;5070398;28;20623;-64
2022/12/30 02:24:39;;;;;;;2.72;1.50;;;;;;;21.16;36.83;100793.78;5071494;28;20040;-64
2022/12/30 02:27:16;;;;;;;2.42;1.50;;;;;;;21.12;36.84;100791.53;5071486;28;20478;-63
2022/12/30 02:30:00;;;;;;;2.20;1.15;;;;;;;21.13;37.02;100787.88;5069810;28;20038;-64
2022/12/30 02:32:41;;;;;;;2.60;1.42;;;;;;;21.10;37.07;100787.44;5060119;28;20044;-64
2022/12/30 02:35:14;;;;;;;3.17;1.70;;;;;;;21.12;36.76;100798.66;5087728;28;20078;-64
2022/12/30 02:37:43;;;;;;;2.20;1.67;;;;;;;21.11;36.85;100803.13;5069399;28;20485;-64
2022/12/30 02:40:26;;;;;;;3.25;1.42;;;;;;;21.10;37.08;100800.66;5069230;28;21151;-64
2022/12/30 02:46:01;;;;;;;3.38;1.55;;;;;;;21.07;36.89;100803.69;5070749;28;20043;-64
2022/12/30 02:48:31;;;;;;;3.33;1.65;;;;;;;21.09;36.96;100797.19;5069659;28;20094;-64
2022/12/30 02:53:44;;;;;;;1.88;1.33;;;;;;;21.10;37.04;100808.63;5069817;28;20225;-64
2022/12/30 02:56:09;;;;;;;3.85;1.52;;;;;;;21.08;37.09;100802.69;5068484;28;20406;-64
2022/12/30 02:58:38;;;;;;;3.80;1.38;;;;;;;21.09;36.94;100796.38;5067445;28;20044;-64
2022/12/30 03:04:37;;;;;;;3.25;1.90;;;;;;;21.04;36.93;100804.91;5043500;28;20052;-64
2022/12/30 03:07:35;;;;;;;2.83;1.45;;;;;;;21.10;37.07;100814.72;5070712;28;20025;-64
2022/12/30 03:13:28;;;;;;;4.25;1.50;;;;;;;21.26;36.55;100797.81;5064680;28;20131;-64
2022/12/30 03:16:05;;;;;;;2.63;1.83;;;;;;;21.26;36.73;100805.75;5072491;28;20056;-64
2022/12/30 03:18:33;;;;;;;2.80;1.20;;;;;;;21.27;36.65;100814.50;5069627;28;20047;-64
2022/12/30 03:21:02;;;;;;;2.20;1.40;;;;;;;21.24;36.75;100802.47;5069604;28;20047;-63
2022/12/30 03:29:01;;;;;;;2.88;1.50;;;;;;;21.22;36.85;100793.06;5068413;28;20055;-63
2022/12/30 03:31:26;;;;;;;2.92;1.58;;;;;;;21.20;36.61;100806.50;5069020;28;20510;-64
2022/12/30 03:33:53;;;;;;;2.78;1.65;;;;;;;21.20;37.06;100822.38;5066364;28;20043;-64
2022/12/30 03:36:37;;;;;;;2.25;1.20;;;;;;;21.19;36.72;100812.78;5068508;28;20131;-64
2022/12/30 03:39:15;;;;;;;3.42;1.52;;;;;;;21.15;36.71;100810.69;5068525;28;20044;-64
2022/12/30 03:41:45;;;;;;;2.92;1.75;;;;;;;21.18;37.04;100813.78;5067902;28;20040;-64
2022/12/30 03:44:11;;;;;;;1.95;1.33;;;;;;;21.16;36.99;100817.63;5068232;28;20788;-64
2022/12/30 03:46:40;;;;;;;4.32;1.73;;;;;;;21.11;36.82;100815.53;5071013;28;20036;-64
2022/12/30 03:49:06;;;;;;;3.25;1.55;;;;;;;21.15;36.76;100821.28;5074185;28;20054;-64
2022/12/30 03:51:31;;;;;;;3.15;1.30;;;;;;;21.12;36.77;100818.00;5074728;28;20473;-63
2022/12/30 03:53:57;;;;;;;2.95;1.40;;;;;;;21.12;36.76;100810.06;5072610;28;20036;-64
2022/12/30 03:56:22;;;;;;;2.47;1.67;;;;;;;21.09;36.96;100799.03;5073134;28;20040;-64
2022/12/30 03:58:48;;;;;;;3.25;1.48;;;;;;;21.15;36.89;100797.44;5072816;28;20561;-64
2022/12/30 04:01:13;;;;;;;1.90;1.48;;;;;;;21.13;36.99;100818.81;5071966;28;20044;-64
2022/12/30 04:03:39;;;;;;;2.60;1.10;;;;;;;21.11;36.77;100818.19;5071266;28;20044;-64
2022/12/30 04:06:05;;;;;;;1.60;1.48;;;;;;;21.08;36.71;100814.09;5074419;28;20031;-64
2022/12/30 04:08:30;;;;;;;2.25;1.33;;;;;;;21.10;36.73;100820.03;5072676;28;20047;-64
2022/12/30 04:10:56;;;;;;;2.75;1.52;;;;;;;21.09;36.82;100820.22;5075697;28;20044;-64
2022/12/30 04:13:21;;;;;;;3.25;1.50;;;;;;;21.09;36.91;100833.44;5071311;28;20674;-64
2022/12/30 04:15:48;;;;;;;2.40;1.88;;;;;;;21.07;36.96;100824.88;5074113;28;21008;-62
2022/12/30 04:18:14;;;;;;;3.13;1.40;;;;;;;21.07;36.83;100838.13;5073443;28;20048;-63
2022/12/30 04:20:39;;;;;;;2.30;1.30;;;;;;;21.06;36.98;100837.31;5075452;28;20104;-63
2022/12/30 04:23:05;;;;;;;4.60;1.75;;;;;;;21.04;36.72;100847.25;5074846;28;20039;-62
2022/12/30 04:25:31;;;;;;;1.92;1.35;;;;;;;21.03;37.06;100847.44;5076637;28;20037;-63
2022/12/30 04:27:56;;;;;;;2.53;1.33;;;;;;;21.03;36.77;100853.56;5070999;28;20693;-62
2022/12/30 04:30:22;;;;;;;2.55;1.20;;;;;;;21.04;36.88;100841.16;5057231;28;20040;-63
2022/12/30 04:32:47;;;;;;;1.83;1.10;;;;;;;21.01;36.96;100839.69;5072845;28;20083;-63
2022/12/30 04:35:13;;;;;;;1.83;1.30;;;;;;;21.00;36.74;100839.84;5076701;28;20052;-63
2022/12/30 04:37:38;;;;;;;2.45;1.15;;;;;;;20.98;36.75;100840.03;5073562;28;20109;-63
2022/12/30 04:40:04;;;;;;;2.42;1.17;;;;;;;20.98;36.76;100847.97;5070522;28;20521;-63
2022/12/30 04:42:30;;;;;;;1.52;0.90;;;;;;;20.97;36.98;100838.41;5072034;28;20051;-63
2022/12/30 04:44:56;;;;;;;2.53;1.48;;;;;;;20.99;36.94;100833.75;5075426;28;20824;-62
2022/12/30 04:47:22;;;;;;;3.30;1.50;;;;;;;20.98;36.88;100840.03;5074771;28;20126;-63
2022/12/30 04:49:47;;;;;;;3.88;1.77;;;;;;;21.04;36.76;100836.66;5074361;28;20043;-63
2022/12/30 04:52:13;;;;;;;2.63;1.83;;;;;;;21.11;36.38;100834.09;5073048;28;20032;-63
2022/12/30 04:54:38;;;;;;;3.20;1.42;;;;;;;21.08;36.61;100827.34;5074191;28;20037;-63
2022/12/30 04:57:04;;;;;;;2.88;1.50;;;;;;;21.12;36.68;100825.13;5076007;28;20052;-63
2022/12/30 04:59:29;;;;;;;4.00;1.63;;;;;;;21.11;36.61;100829.59;5073734;28;20047;-62
2022/12/30 05:01:55;;;;;;;3.17;1.38;;;;;;;21.10;36.73;100820.03;5077324;28;20032;-63
2022/12/30 05:04:20;;;;;;;4.28;1.20;;;;;;;21.07;36.79;100820.41;5073081;28;20043;-63
2022/12/30 05:06:46;;;;;;;2.28;1.05;;;;;;;21.10;36.66;100833.25;5070148;28;20036;-62
2022/12/30 05:09:11;;;;;;;1.65;1.55;;;;;;;21.07;36.68;100838.13;5072326;28;20043;-63
2022/12/30 05:11:37;;;;;;;3.83;1.70;;;;;;;21.10;36.90;100829.78;5074275;28;20093;-62
2022/12/30 05:14:02;;;;;;;1.58;1.00;;;;;;;21.05;36.94;100840.97;5074455;28;20137;-62
2022/12/30 05:16:28;;;;;;;1.92;1.30;;;;;;;21.07;36.92;100848.72;5073843;28;20040;-63
2022/12/30 05:18:53;;;;;;;3.13;1.58;;;;;;;21.06;36.84;100849.72;5077124;28;20042;-63
2022/12/30 05:21:19;;;;;;;2.13;1.30;;;;;;;21.02;36.70;100849.28;5073186;28;20048;-62
2022/12/30 05:26:28;;;;;;;2.78;1.50;;;;;;;21.03;36.87;100861.50;5075290;28;20772;-62
2022/12/30 05:28:54;;;;;;;3.63;1.67;;;;;;;20.89;36.77;100835.88;5083938;28;20044;-63
2022/12/30 05:31:20;;;;;;;2.15;1.33;;;;;;;21.01;36.74;100852.94;5081670;28;20032;-62
2022/12/30 05:33:46;;;;;;;3.00;1.60;;;;;;;21.01;36.70;100838.88;5082611;28;20127;-63
2022/12/30 05:36:12;;;;;;;2.50;1.15;;;;;;;21.01;36.83;100836.22;5081328;28;20496;-63
2022/12/30 05:38:38;;;;;;;3.13;1.42;;;;;;;21.02;36.79;100838.69;5079254;28;20047;-63
2022/12/30 05:41:05;;;;;;;1.92;1.20;;;;;;;21.00;36.72;100840.69;5079131;28;20111;-62
2022/12/30 05:43:30;;;;;;;2.10;1.35;;;;;;;21.00;36.89;100837.22;5082989;28;20097;-63
2022/12/30 05:45:57;;;;;;;2.60;1.13;;;;;;;21.00;36.78;100839.84;5078900;28;20040;-62
2022/12/30 05:48:23;;;;;;;1.92;1.00;;;;;;;20.98;36.99;100833.94;5074296;28;20035;-62
2022/12/30 05:50:49;;;;;;;2.53;1.52;;;;;;;20.96;37.00;100834.13;5079397;28;20400;-62
2022/12/30 05:53:15;;;;;;;3.08;1.77;;;;;;;21.01;36.98;100849.47;5079739;28;20042;-63
2022/12/30 05:55:41;;;;;;;1.75;1.30;;;;;;;21.08;36.83;100845.88;5080224;28;20035;-62
2022/12/30 05:58:07;;;;;;;2.78;1.70;;;;;;;21.18;36.50;100844.72;5079623;28;20127;-63
2022/12/30 06:00:32;;;;;;;2.30;1.63;;;;;;;21.17;36.67;100833.31;5076032;28;20051;-63
2022/12/30 06:02:58;;;;;;;1.98;1.27;;;;;;;21.21;36.39;100828.50;5078429;28;20035;-62
2022/12/30 06:05:23;;;;;;;2.53;1.40;;;;;;;21.24;36.60;100831.59;5074520;28;20098;-62
2022/12/30 06:07:49;;;;;;;2.45;1.50;;;;;;;21.22;36.32;100833.59;5078097;28;20090;-62
2022/12/30 06:10:14;;;;;;;2.00;1.20;;;;;;;21.18;36.71;100829.66;5076628;28;20118;-63
2022/12/30 06:12:40;;;;;;;1.70;1.17;;;;;;;21.16;36.75;100825.56;5076031;28;20036;-61
2022/12/30 06:15:06;;;;;;;1.58;1.05;;;;;;;21.15;36.50;100824.75;5078793;28;20044;-62
2022/12/30 06:17:32;;;;;;;2.20;1.40;;;;;;;21.13;36.61;100817.00;5078869;28;20036;-62
2022/12/30 06:19:57;;;;;;;2.85;1.33;;;;;;;21.10;36.53;100804.13;5079709;28;20508;-63
2022/12/30 06:22:23;;;;;;;1.83;1.17;;;;;;;21.11;36.63;100808.44;5076417;28;20052;-63
2022/12/30 06:24:49;;;;;;;2.72;1.00;;;;;;;21.11;36.85;100812.91;5077707;28;20127;-62
2022/12/30 06:27:14;;;;;;;2.50;1.38;;;;;;;21.11;36.83;100813.72;5076734;28;20036;-63
2022/12/30 06:29:40;;;;;;;1.92;1.48;;;;;;;20.99;36.75;100798.50;5078343;28;20040;-62
2022/12/30 06:32:05;;;;;;;1.60;1.10;;;;;;;21.09;36.86;100825.50;5080710;28;20044;-62
2022/12/30 06:34:31;;;;;;;1.85;1.20;;;;;;;21.09;36.71;100815.75;5080764;28;20053;-62
2022/12/30 06:36:56;;;;;;;1.17;0.95;;;;;;;21.07;36.71;100815.09;5076928;28;20714;-62
2022/12/30 06:39:22;;;;;;;1.85;1.35;;;;;;;21.09;36.89;100814.91;5077412;28;20070;-62
2022/12/30 06:41:48;;;;;;;2.30;1.23;;;;;;;21.03;36.85;100811.22;5078639;28;20570;-62
2022/12/30 06:44:13;;;;;;;3.10;1.30;;;;;;;21.06;36.94;100804.72;5078771;28;20040;-62
2022/12/30 06:46:39;;;;;;;2.58;1.15;;;;;;;21.04;36.78;100815.50;5079057;28;20032;-63
2022/12/30 06:49:04;;;;;;;2.05;1.10;;;;;;;21.06;36.82;100813.47;5076132;28;20040;-62
2022/12/30 06:51:30;;;;;;;1.83;1.30;;;;;;;21.05;37.00;100813.66;5078040;28;20039;-62
2022/12/30 06:53:56;;;;;;;2.90;1.27;;;;;;;21.05;36.90;100811.84;5072145;28;20303;-63
2022/12/30 06:56:21;;;;;;;1.45;1.02;;;;;;;21.02;36.97;100801.63;5075662;28;20414;-63
2022/12/30 06:58:47;;;;;;;2.33;1.20;;;;;;;21.04;36.80;100804.09;5074581;28;20043;-63
2022/12/30 07:01:12;;;;;;;2.40;1.20;;;;;;;21.00;37.09;100808.91;5072844;28;20040;-63
2022/12/30 07:03:38;;;;;;;2.13;1.10;;;;;;;21.03;36.84;100800.63;5073707;28;20142;-64
2022/12/30 07:06:05;;;;;;;1.88;1.10;;;;;;;21.01;36.85;100801.81;5074301;28;20038;-62
2022/12/30 07:08:30;;;;;;;2.05;1.08;;;;;;;21.01;36.90;100809.75;5075411;28;20633;-62
2022/12/30 07:10:56;;;;;;;3.10;1.20;;;;;;;21.02;37.00;100800.81;5079040;28;20032;-62
2022/12/30 07:13:22;;;;;;;2.78;1.23;;;;;;;21.00;37.01;100798.31;5075004;28;20070;-62
2022/12/30 07:15:48;;;;;;;2.03;1.25;;;;;;;20.97;36.88;100793.41;5070910;28;20035;-62
2022/12/30 07:18:13;;;;;;;2.10;1.38;;;;;;;20.99;36.98;100796.69;5072582;28;20047;-62
2022/12/30 07:20:39;;;;;;;2.03;1.10;;;;;;;20.95;36.91;100795.41;5078881;28;20653;-62
2022/12/30 07:23:05;;;;;;;1.98;1.02;;;;;;;20.96;37.15;100794.41;5079051;28;20745;-62
2022/12/30 07:25:30;;;;;;;1.75;0.93;;;;;;;20.97;37.03;100790.75;5078152;28;20139;-62
2022/12/30 07:27:58;;;;;;;2.42;1.33;;;;;;;20.96;37.19;100789.13;5077679;28;20126;-62
2022/12/30 07:30:25;;;;;;;1.35;0.82;;;;;;;20.97;37.12;100789.94;5076595;28;20044;-63
2022/12/30 07:32:50;;;;;;;2.33;1.20;;;;;;;20.96;37.17;100791.75;5072433;28;20508;-62
2022/12/30 07:35:17;;;;;;;2.38;1.38;;;;;;;20.94;36.93;100783.19;5071977;28;20044;-63
2022/12/30 07:37:43;;;;;;;2.97;1.27;;;;;;;20.91;37.10;100774.81;5075477;28;20096;-62
2022/12/30 07:40:09;;;;;;;2.42;1.13;;;;;;;20.97;36.91;100784.63;5073474;28;20043;-62
2022/12/30 07:42:34;;;;;;;2.67;1.05;;;;;;;20.94;37.15;100782.38;5076801;28;20177;-62
2022/12/30 07:45:00;;;;;;;2.15;0.93;;;;;;;20.94;37.12;100785.84;5075139;28;20050;-62
2022/12/30 07:47:30;;;;;;;1.40;1.13;;;;;;;20.93;37.06;100780.75;5068664;28;20036;-63
2022/12/30 07:49:56;;;;;;;;;;;;;;;20.79;37.22;100756.78;5075726;28;20051;-61
2022/12/30 07:52:21;;;;;;;2.78;1.33;;;;;;;20.91;37.09;100761.59;5069338;28;19920;-62
2022/12/30 07:54:47;;;;;;;2.58;1.35;;;;;;;20.95;36.93;100768.13;5072211;28;20114;-62
2022/12/30 07:57:12;;;;;;;2.47;1.55;;;;;;;20.89;37.05;100767.06;5072076;28;20032;-62
2022/12/30 07:59:38;;;;;;;2.20;1.38;;;;;;;20.93;36.85;100756.91;5069830;28;20063;-63
2022/12/30 08:02:03;;;;;;;1.83;1.17;;;;;;;20.96;36.90;100754.69;5069744;28;20044;-63
2022/12/30 08:04:29;;;;;;;1.55;1.05;;;;;;;21.10;36.69;100756.47;5077484;28;20036;-62
2022/12/30 08:06:54;;;;;;;1.25;0.95;;;;;;;21.13;36.86;100752.63;5074969;28;20036;-62
2022/12/30 08:09:20;;;;;;;1.77;1.00;;;;;;;21.20;36.69;100753.53;5053343;28;20028;-62
2022/12/30 08:11:45;;;;;;;1.38;1.00;;;;;;;21.16;36.97;100743.47;5075987;28;20036;-63
2022/12/30 08:14:11;;;;;;;1.63;0.98;;;;;;;21.17;36.73;100738.00;5077377;28;20044;-62
2022/12/30 08:16:36;;;;;;;1.65;1.40;;;;;;;21.17;37.02;100745.13;5069554;28;20044;-62
2022/12/30 08:19:02;;;;;;;1.23;1.10;;;;;;;21.10;36.84;100729.19;5075460;28;20359;-63
2022/12/30 08:21:27;;;;;;;4.70;1.23;;;;;;;21.17;36.67;100745.94;5070902;28;20041;-62
2022/12/30 08:23:54;;;;;;;1.52;1.10;;;;;;;21.11;36.91;100738.75;5074222;28;20103;-62
2022/12/30 08:26:22;;;;;;;1.60;1.00;;;;;;;21.12;37.02;100730.63;5071094;28;20564;-62
2022/12/30 08:28:48;;;;;;;1.90;0.95;;;;;;;21.13;36.72;100734.91;5071184;28;20036;-62
2022/12/30 08:31:16;;;;;;;1.33;0.75;;;;;;;21.07;37.06;100726.91;5069864;28;20039;-62
2022/12/30 08:33:43;;;;;;;1.92;1.20;;;;;;;21.10;37.07;100723.88;5069078;28;20056;-63
2022/12/30 08:36:11;;;;;;;1.20;0.90;;;;;;;21.10;36.86;100721.25;5075406;28;20394;-63
2022/12/30 08:38:38;;;;;;;1.63;1.00;;;;;;;21.11;36.88;100712.28;5072781;28;20035;-62
2022/12/30 08:41:10;;;;;;;1.83;1.08;;;;;;;21.08;36.81;100704.72;5036013;28;20060;-63
2022/12/30 08:43:36;;;;;;;1.95;1.25;;;;;;;21.05;36.99;100705.13;5038796;28;20033;-62
2022/12/30 08:46:02;;;;;;;2.70;1.30;;;;;;;21.05;36.85;100699.81;5034948;28;20071;-62
2022/12/30 08:48:28;;;;;;;1.65;1.30;;;;;;;21.03;36.81;100693.91;5041061;28;20048;-63
2022/12/30 08:50:55;;;;;;;2.10;1.08;;;;;;;21.01;36.90;100693.28;5034596;28;20107;-62
2022/12/30 08:53:21;;;;;;;1.60;1.10;;;;;;;21.02;36.90;100686.97;5037867;28;20057;-62
2022/12/30 08:55:46;;;;;;;1.40;1.17;;;;;;;21.01;36.94;100693.28;5039542;28;20036;-63
2022/12/30 08:58:12;;;;;;;1.27;1.17;;;;;;;21.01;36.95;100693.28;5045332;28;20548;-62
2022/12/30 09:00:38;;;;;;;2.35;1.13;;;;;;;20.99;36.94;100687.31;5037946;28;20037;-63
2022/12/30 09:03:04;;;;;;;2.25;1.45;;;;;;;20.99;36.76;100692.63;5043829;28;20040;-62
2022/12/30 09:05:32;;;;;;;1.63;1.00;;;;;;;20.97;36.75;100682.22;5039507;28;20627;-62
2022/12/30 09:07:58;;;;;;;1.15;0.93;;;;;;;20.99;36.79;100685.50;5037978;28;20029;-63
2022/12/30 09:10:23;;;;;;;2.10;1.20;;;;;;;20.98;36.81;100678.56;5039975;28;20041;-63
2022/12/30 09:12:49;;;;;;;1.65;1.17;;;;;;;20.96;36.85;100677.13;5038266;28;20106;-62
2022/12/30 09:15:14;;;;;;;1.20;1.10;;;;;;;20.96;36.70;100674.47;5033698;28;20048;-63
2022/12/30 09:17:40;;;;;;;1.70;1.02;;;;;;;20.91;36.77;100669.75;5040542;28;20041;-63
2022/12/30 09:20:06;;;;;;;1.83;1.17;;;;;;;20.94;36.66;100668.56;5041506;28;20032;-63
2022/12/30 09:22:31;;;;;;;3.15;1.52;;;;;;;20.94;36.61;100661.44;5039954;28;20578;-63
2022/12/30 09:24:57;;;;;;;2.22;1.08;;;;;;;20.94;36.72;100652.69;5040521;28;21025;-62
2022/12/30 09:27:22;;;;;;;2.15;1.02;;;;;;;20.95;36.74;100651.66;5044151;28;20056;-63
2022/12/30 09:29:48;;;;;;;3.72;1.15;;;;;;;20.92;36.73;100641.47;5034176;28;20037;-63
2022/12/30 09:32:13;;;;;;;3.53;1.33;;;;;;;20.90;36.87;100644.31;5038229;28;20044;-63
2022/12/30 09:34:41;;;;;;;1.88;0.85;;;;;;;20.91;37.04;100643.28;5033851;28;20056;-63
2022/12/30 09:37:07;;;;;;;1.92;1.35;;;;;;;20.92;36.79;100636.16;5034728;28;20044;-63
2022/12/30 09:39:32;;;;;;;2.00;1.20;;;;;;;21.01;36.58;100619.16;5052069;28;20059;-62
2022/12/30 09:45:09;;;;;;;2.22;1.50;;;;;;;21.09;36.88;100619.00;5081890;28;20055;-61
2022/12/30 09:48:05;;;;;;;2.55;1.65;;;;;;;21.02;37.00;100624.25;5076090;28;20048;-62
2022/12/30 09:50:44;;;;;;;1.65;1.40;;;;;;;21.13;36.84;100630.81;5067886;28;20552;-66
2022/12/30 09:53:28;;;;;;;1.83;1.48;;;;;;;21.24;36.54;100618.91;5071581;28;20028;-65
2022/12/30 09:56:00;;;;;;;2.40;1.55;;;;;;;21.25;36.70;100617.91;5080010;28;20098;-66
2022/12/30 09:58:32;;;;;;;1.75;1.10;;;;;;;21.34;36.52;100622.84;5077091;28;20094;-66
2022/12/30 10:01:24;;;;;;;2.10;1.20;;;;;;;21.27;36.59;100618.53;5075458;28;20089;-66
2022/12/30 10:03:58;;;;;;;2.13;1.30;;;;;;;21.36;36.16;100607.59;5067180;28;20037;-66
2022/12/30 10:06:38;;;;;;;4.03;1.38;;;;;;;21.38;36.08;100618.00;5077293;28;20032;-66
2022/12/30 10:09:35;;;;;;;2.58;1.48;;;;;;;21.37;36.19;100611.88;5078784;28;20385;-67
2022/12/30 10:12:45;;;;;;;2.67;1.50;;;;;;;21.46;35.98;100604.59;5074531;28;20586;-66
2022/12/30 10:15:19;;;;;;;1.38;0.93;;;;;;;21.48;35.89;100591.16;4999092;28;20046;-66
2022/12/30 10:17:52;;;;;;;3.55;1.35;;;;;;;21.49;35.80;100584.81;5066158;28;20036;-66
2022/12/30 10:20:48;;;;;;;3.13;1.48;;;;;;;21.44;35.96;100577.47;5075133;28;20111;-66
2022/12/30 10:23:25;;;;;;;1.77;1.10;;;;;;;21.52;35.73;100571.19;5082799;28;20028;-65
2022/12/30 10:26:18;;;;;;;3.03;1.20;;;;;;;21.49;35.63;100556.50;5072175;28;20025;-65
2022/12/30 10:29:04;;;;;;;2.35;1.10;;;;;;;21.48;35.82;100544.28;5079705;28;20428;-65
2022/12/30 10:31:33;;;;;;;2.40;1.17;;;;;;;21.49;35.90;100547.75;5075305;28;20576;-65
2022/12/30 10:34:14;;;;;;;1.93;1.20;;;;;;;21.60;35.85;100541.88;5078333;28;20040;-65
2022/12/30 10:37:05;;;;;;;1.80;1.27;;;;;;;21.56;35.66;100532.72;5076656;28;20177;-65
2022/12/30 10:39:51;;;;;;;3.05;1.65;;;;;;;21.66;35.54;100518.06;5081053;28;20430;-65
2022/12/30 10:42:47;;;;;;;2.33;1.10;;;;;;;21.54;35.68;100513.50;5079135;28;20117;-65
2022/12/30 10:45:27;;;;;;;1.50;0.90;;;;;;;21.56;35.75;100485.03;5072556;28;20135;-65
2022/12/30 10:48:17;;;;;;;2.30;1.10;;;;;;;21.59;35.73;100489.91;5080395;28;20694;-65
2022/12/30 10:50:45;;;;;;;1.83;1.20;;;;;;;21.49;35.80;100468.25;5077844;28;20552;-66
2022/12/30 10:53:17;;;;;;;1.70;1.23;;;;;;;21.46;35.67;100458.88;5081501;28;20490;-65
2022/12/30 10:55:55;;;;;;;2.25;1.15;;;;;;;21.42;35.68;100447.88;5075626;28;20063;-65
2022/12/30 10:58:38;;;;;;;1.75;1.05;;;;;;;21.42;35.91;100455.81;5077236;28;20089;-65
2022/12/30 11:01:04;;;;;;;1.33;0.93;;;;;;;21.40;35.52;100439.31;5076743;28;20510;-65
2022/12/30 11:03:34;;;;;;;1.50;1.00;;;;;;;21.38;35.93;100429.94;5081240;28;20075;-66
2022/12/30 11:06:18;;;;;;;1.80;1.40;;;;;;;21.37;35.76;100423.84;5074634;28;20394;-65
2022/12/30 11:08:44;;;;;;;2.13;1.17;;;;;;;21.40;35.69;100422.59;5078491;28;20043;-65
2022/12/30 11:11:09;;;;;;;1.08;1.00;;;;;;;21.36;35.77;100410.75;5077873;28;20040;-65
2022/12/30 11:16:38;;;;;;;2.50;1.15;;;;;;;21.32;36.12;100404.22;5071710;28;20069;-66
2022/12/30 11:19:04;;;;;;;2.42;1.00;;;;;;;21.25;35.99;100404.22;5079401;28;20732;-65
2022/12/30 11:21:32;;;;;;;1.42;0.88;;;;;;;21.27;36.01;100398.72;5077679;28;20044;-65
2022/12/30 11:24:01;;;;;;;2.05;1.15;;;;;;;21.24;35.81;100391.16;5076936;28;20039;-65
2022/12/30 11:26:29;;;;;;;1.65;1.08;;;;;;;21.23;35.86;100402.75;5077351;28;20036;-64
2022/12/30 11:29:01;;;;;;;1.58;1.10;;;;;;;21.25;35.78;100392.81;5075808;28;20061;-65
2022/12/30 11:31:35;;;;;;;1.73;1.02;;;;;;;21.18;36.10;100390.09;5074976;28;20440;-65
2022/12/30 11:34:02;;;;;;;2.75;1.30;;;;;;;21.13;36.12;100371.34;5077591;28;20141;-65
2022/12/30 11:36:28;;;;;;;1.25;1.13;;;;;;;21.20;36.00;100371.41;5068838;28;20036;-65
2022/12/30 11:38:56;;;;;;;1.67;1.10;;;;;;;21.18;36.04;100346.91;5073534;28;20118;-65
2022/12/30 11:41:29;;;;;;;1.98;1.27;;;;;;;21.16;36.03;100341.81;5079462;28;20200;-65
2022/12/30 11:44:00;;;;;;;1.65;1.08;;;;;;;21.15;35.99;100342.84;5080539;28;20051;-65
2022/12/30 11:46:38;;;;;;;1.42;0.90;;;;;;;21.11;36.24;100323.91;5075046;28;20628;-64
2022/12/30 11:49:22;;;;;;;1.58;1.10;;;;;;;21.10;36.21;100324.09;5072887;28;20565;-65
2022/12/30 11:51:53;;;;;;;0.95;0.75;;;;;;;21.08;36.06;100308.41;5073488;28;20040;-65
2022/12/30 11:54:32;;;;;;;2.10;1.05;;;;;;;21.12;36.25;100312.28;5074959;28;20480;-65
2022/12/30 11:57:00;;;;;;;0.90;0.88;;;;;;;21.13;36.27;100300.69;5072765;28;20028;-66
2022/12/30 11:59:32;;;;;;;1.88;1.00;;;;;;;21.11;36.16;100293.97;5073904;28;20036;-66
2022/12/30 12:02:02;;;;;;;1.25;0.80;;;;;;;21.11;36.22;100284.19;5073323;28;20040;-65
2022/12/30 12:04:39;;;;;;;2.00;1.10;;;;;;;21.08;36.17;100274.00;5075363;28;20043;-65
2022/12/30 12:07:15;;;;;;;1.98;0.80;;;;;;;21.09;36.21;100278.28;5077196;28;20032;-66
2022/12/30 12:09:49;;;;;;;1.35;0.90;;;;;;;21.07;36.32;100255.69;5076757;28;20097;-65
2022/12/30 12:12:19;;;;;;;1.80;1.00;;;;;;;21.06;36.48;100236.34;5078756;28;20111;-65
2022/12/30 12:14:45;;;;;;;;;;;;;;;21.05;36.26;100234.69;5073222;28;20068;-65
2022/12/30 12:17:22;;;;;;;1.13;0.85;;;;;;;21.05;36.50;100220.66;5076290;28;20015;-65
2022/12/30 12:20:10;;;;;;;1.65;1.15;;;;;;;21.04;36.32;100209.25;5078015;28;20047;-65
2022/12/30 12:22:57;;;;;;;1.30;0.95;;;;;;;21.00;36.27;100209.84;5081593;28;20070;-64
2022/12/30 12:25:29;;;;;;;1.98;0.82;;;;;;;21.00;36.26;100186.81;5079984;28;20051;-65
2022/12/30 12:27:55;;;;;;;1.42;0.95;;;;;;;21.01;36.19;100187.66;5075703;28;20032;-65
2022/12/30 12:30:21;;;;;;;1.70;0.90;;;;;;;20.99;36.51;100179.91;5080528;28;20024;-65
2022/12/30 12:33:22;;;;;;;1.45;0.85;;;;;;;20.97;36.50;100163.41;5076455;28;20140;-65
2022/12/30 12:36:27;;;;;;;1.40;0.80;;;;;;;20.98;36.28;100166.88;5076183;28;20044;-65
2022/12/30 12:39:06;;;;;;;1.00;0.80;;;;;;;20.96;36.38;100145.91;5077097;28;20778;-64
2022/12/30 12:41:58;;;;;;;0.95;0.70;;;;;;;20.96;36.29;100139.78;5081312;28;20127;-65